sensor_id;sensor_type;location;lat;lon;timestamp;temperature;humidity
6536;DHT22;34330;52.08032700;5.40923460;2023-03-16T00:02:08;8.80;65.80
6536;DHT22;34330;52.08032700;5.40923460;2023-03-16T00:04:37;8.80;65.70
6536;DHT22;34330;52.08032700;5.40923460;2023-03-16T00:07:06;8.80;65.90
6536;DHT22;34330;52.08032700;5.40923460;2023-03-16T00:09:35;8.80;66.00
6536;DHT22;34330;52.08032700;5.40923460;2023-03-16T00:12:09;8.80;66.30
6536;DHT22;34330;52.08032700;5.40923460;2023-03-16T00:14:46;8.80;66.30
6536;DHT22;34330;52.08032700;5.40923460;2023-03-16T00:17:16;8.80;66.30
6536;DHT22;34330;52.08032700;5.40923460;2023-03-16T00:19:46;9.00;66.70
6536;DHT22;34330;52.08032700;5.40923460;2023-03-16T00:22:14;8.80;66.50
6536;DHT22;34330;52.08032700;5.40923460;2023-03-16T00:24:43;8.80;66.40
6536;DHT22;34330;52.08032700;5.40923460;2023-03-16T00:27:11;8.80;66.50
6536;DHT22;34330;52.08032700;5.40923460;2023-03-16T00:29:44;8.80;66.90
6536;DHT22;34330;52.08032700;5.40923460;2023-03-16T00:32:14;8.80;66.90
6536;DHT22;34330;52.08032700;5.40923460;2023-03-16T00:34:44;9.40;67.80
6536;DHT22;34330;52.08032700;5.40923460;2023-03-16T00:37:14;8.80;67.40
6536;DHT22;34330;52.08032700;5.40923460;2023-03-16T00:39:44;8.80;67.50
6536;DHT22;34330;52.08032700;5.40923460;2023-03-16T00:42:16;8.80;67.50
6536;DHT22;34330;52.08032700;5.40923460;2023-03-16T00:44:46;8.80;67.60
6536;DHT22;34330;52.08032700;5.40923460;2023-03-16T00:47:14;8.80;67.60
6536;DHT22;34330;52.08032700;5.40923460;2023-03-16T00:49:43;8.80;67.70
6536;DHT22;34330;52.08032700;5.40923460;2023-03-16T00:52:12;8.80;67.90
6536;DHT22;34330;52.08032700;5.40923460;2023-03-16T00:54:41;8.80;68.20
6536;DHT22;34330;52.08032700;5.40923460;2023-03-16T00:57:10;8.80;68.30
6536;DHT22;34330;52.08032700;5.40923460;2023-03-16T00:59:40;8.80;68.40
6536;DHT22;34330;52.08032700;5.40923460;2023-03-16T01:02:10;8.80;68.40
6536;DHT22;34330;52.08032700;5.40923460;2023-03-16T01:04:40;8.80;68.50
6536;DHT22;34330;52.08032700;5.40923460;2023-03-16T01:07:09;8.80;68.60
6536;DHT22;34330;52.08032700;5.40923460;2023-03-16T01:09:38;8.70;68.70
6536;DHT22;34330;52.08032700;5.40923460;2023-03-16T01:12:08;8.70;68.50
6536;DHT22;34330;52.08032700;5.40923460;2023-03-16T01:14:37;8.70;69.00
6536;DHT22;34330;52.08032700;5.40923460;2023-03-16T01:17:07;8.70;69.10
6536;DHT22;34330;52.08032700;5.40923460;2023-03-16T01:19:37;8.70;69.30
6536;DHT22;34330;52.08032700;5.40923460;2023-03-16T01:22:05;8.70;69.20
6536;DHT22;34330;52.08032700;5.40923460;2023-03-16T01:24:33;8.70;69.30
6536;DHT22;34330;52.08032700;5.40923460;2023-03-16T01:27:02;8.70;69.50
6536;DHT22;34330;52.08032700;5.40923460;2023-03-16T01:29:31;8.70;69.50
6536;DHT22;34330;52.08032700;5.40923460;2023-03-16T01:31:59;8.70;69.70
6536;DHT22;34330;52.08032700;5.40923460;2023-03-16T01:34:27;8.80;70.10
6536;DHT22;34330;52.08032700;5.40923460;2023-03-16T01:36:56;8.70;69.90
6536;DHT22;34330;52.08032700;5.40923460;2023-03-16T01:39:24;9.10;70.40
6536;DHT22;34330;52.08032700;5.40923460;2023-03-16T01:41:52;8.70;70.20
6536;DHT22;34330;52.08032700;5.40923460;2023-03-16T01:44:22;8.70;70.00
6536;DHT22;34330;52.08032700;5.40923460;2023-03-16T01:46:56;8.70;70.50
6536;DHT22;34330;52.08032700;5.40923460;2023-03-16T01:49:27;8.70;70.50
6536;DHT22;34330;52.08032700;5.40923460;2023-03-16T01:52:02;8.70;70.60
6536;DHT22;34330;52.08032700;5.40923460;2023-03-16T01:54:33;8.70;70.80
6536;DHT22;34330;52.08032700;5.40923460;2023-03-16T01:57:06;8.70;70.70
6536;DHT22;34330;52.08032700;5.40923460;2023-03-16T01:59:38;8.70;70.80
6536;DHT22;34330;52.08032700;5.40923460;2023-03-16T02:02:07;8.70;71.00
6536;DHT22;34330;52.08032700;5.40923460;2023-03-16T02:04:40;8.70;71.00
6536;DHT22;34330;52.08032700;5.40923460;2023-03-16T02:07:12;8.70;71.30
6536;DHT22;34330;52.08032700;5.40923460;2023-03-16T02:09:47;9.00;71.30
6536;DHT22;34330;52.08032700;5.40923460;2023-03-16T02:12:17;8.70;71.50
6536;DHT22;34330;52.08032700;5.40923460;2023-03-16T02:14:47;8.70;71.20
6536;DHT22;34330;52.08032700;5.40923460;2023-03-16T02:17:17;8.70;71.30
6536;DHT22;34330;52.08032700;5.40923460;2023-03-16T02:19:52;8.70;71.50
6536;DHT22;34330;52.08032700;5.40923460;2023-03-16T02:22:25;8.70;71.70
6536;DHT22;34330;52.08032700;5.40923460;2023-03-16T02:24:55;8.70;71.70
6536;DHT22;34330;52.08032700;5.40923460;2023-03-16T02:27:28;8.70;71.70
6536;DHT22;34330;52.08032700;5.40923460;2023-03-16T02:30:07;8.70;71.90
6536;DHT22;34330;52.08032700;5.40923460;2023-03-16T02:32:38;8.70;72.10
6536;DHT22;34330;52.08032700;5.40923460;2023-03-16T02:35:08;8.90;72.40
6536;DHT22;34330;52.08032700;5.40923460;2023-03-16T02:37:36;8.80;72.30
6536;DHT22;34330;52.08032700;5.40923460;2023-03-16T02:40:17;8.70;72.20
6536;DHT22;34330;52.08032700;5.40923460;2023-03-16T02:42:47;8.70;72.90
6536;DHT22;34330;52.08032700;5.40923460;2023-03-16T02:45:23;8.70;72.80
6536;DHT22;34330;52.08032700;5.40923460;2023-03-16T02:47:53;8.70;73.00
6536;DHT22;34330;52.08032700;5.40923460;2023-03-16T02:50:21;8.70;72.90
6536;DHT22;34330;52.08032700;5.40923460;2023-03-16T02:52:49;8.70;73.00
6536;DHT22;34330;52.08032700;5.40923460;2023-03-16T02:55:17;8.70;73.20
6536;DHT22;34330;52.08032700;5.40923460;2023-03-16T02:57:45;8.70;73.30
6536;DHT22;34330;52.08032700;5.40923460;2023-03-16T03:00:13;8.80;73.40
6536;DHT22;34330;52.08032700;5.40923460;2023-03-16T03:02:45;8.80;73.60
6536;DHT22;34330;52.08032700;5.40923460;2023-03-16T03:05:13;8.70;73.60
6536;DHT22;34330;52.08032700;5.40923460;2023-03-16T03:07:41;8.70;73.60
6536;DHT22;34330;52.08032700;5.40923460;2023-03-16T03:10:10;8.70;73.30
6536;DHT22;34330;52.08032700;5.40923460;2023-03-16T03:12:38;8.70;73.70
6536;DHT22;34330;52.08032700;5.40923460;2023-03-16T03:15:07;8.70;73.80
6536;DHT22;34330;52.08032700;5.40923460;2023-03-16T03:17:35;8.70;73.90
6536;DHT22;34330;52.08032700;5.40923460;2023-03-16T03:20:05;8.70;73.70
6536;DHT22;34330;52.08032700;5.40923460;2023-03-16T03:22:39;8.70;74.10
6536;DHT22;34330;52.08032700;5.40923460;2023-03-16T03:25:08;8.70;74.10
6536;DHT22;34330;52.08032700;5.40923460;2023-03-16T03:27:36;8.70;74.30
6536;DHT22;34330;52.08032700;5.40923460;2023-03-16T03:30:05;8.70;74.30
6536;DHT22;34330;52.08032700;5.40923460;2023-03-16T03:32:33;8.70;74.60
6536;DHT22;34330;52.08032700;5.40923460;2023-03-16T03:35:04;8.70;74.50
6536;DHT22;34330;52.08032700;5.40923460;2023-03-16T03:37:32;8.70;74.80
6536;DHT22;34330;52.08032700;5.40923460;2023-03-16T03:40:00;8.70;74.60
6536;DHT22;34330;52.08032700;5.40923460;2023-03-16T03:42:36;8.70;75.10
6536;DHT22;34330;52.08032700;5.40923460;2023-03-16T03:45:04;8.70;74.90
6536;DHT22;34330;52.08032700;5.40923460;2023-03-16T03:47:33;8.70;75.50
6536;DHT22;34330;52.08032700;5.40923460;2023-03-16T03:50:02;8.70;75.40
6536;DHT22;34330;52.08032700;5.40923460;2023-03-16T03:52:31;8.70;75.50
6536;DHT22;34330;52.08032700;5.40923460;2023-03-16T03:54:59;8.70;75.80
6536;DHT22;34330;52.08032700;5.40923460;2023-03-16T03:57:27;8.70;76.00
6536;DHT22;34330;52.08032700;5.40923460;2023-03-16T03:59:55;8.70;76.00
6536;DHT22;34330;52.08032700;5.40923460;2023-03-16T04:02:23;8.70;76.20
6536;DHT22;34330;52.08032700;5.40923460;2023-03-16T04:04:51;8.70;76.40
6536;DHT22;34330;52.08032700;5.40923460;2023-03-16T04:07:19;8.70;76.50
6536;DHT22;34330;52.08032700;5.40923460;2023-03-16T04:09:48;8.70;76.60
6536;DHT22;34330;52.08032700;5.40923460;2023-03-16T04:12:17;10.60;77.40
6536;DHT22;34330;52.08032700;5.40923460;2023-03-16T04:14:45;8.60;76.70
6536;DHT22;34330;52.08032700;5.40923460;2023-03-16T04:17:13;8.60;77.00
6536;DHT22;34330;52.08032700;5.40923460;2023-03-16T04:19:41;8.60;77.00
6536;DHT22;34330;52.08032700;5.40923460;2023-03-16T04:22:09;8.60;77.00
6536;DHT22;34330;52.08032700;5.40923460;2023-03-16T04:24:38;8.60;77.20
6536;DHT22;34330;52.08032700;5.40923460;2023-03-16T04:27:11;8.60;77.40
6536;DHT22;34330;52.08032700;5.40923460;2023-03-16T04:29:38;8.60;77.40
6536;DHT22;34330;52.08032700;5.40923460;2023-03-16T04:32:07;8.60;77.50
6536;DHT22;34330;52.08032700;5.40923460;2023-03-16T04:34:35;8.50;77.40
6536;DHT22;34330;52.08032700;5.40923460;2023-03-16T04:37:04;8.50;77.70
6536;DHT22;34330;52.08032700;5.40923460;2023-03-16T04:39:32;8.50;77.70
6536;DHT22;34330;52.08032700;5.40923460;2023-03-16T04:42:00;8.50;77.90
6536;DHT22;34330;52.08032700;5.40923460;2023-03-16T04:44:29;8.50;78.20
6536;DHT22;34330;52.08032700;5.40923460;2023-03-16T04:46:57;8.50;78.10
6536;DHT22;34330;52.08032700;5.40923460;2023-03-16T04:49:26;8.50;78.20
6536;DHT22;34330;52.08032700;5.40923460;2023-03-16T04:51:54;8.50;78.30
6536;DHT22;34330;52.08032700;5.40923460;2023-03-16T04:54:23;8.50;78.40
6536;DHT22;34330;52.08032700;5.40923460;2023-03-16T04:56:51;8.40;78.30
6536;DHT22;34330;52.08032700;5.40923460;2023-03-16T04:59:19;8.50;78.40
6536;DHT22;34330;52.08032700;5.40923460;2023-03-16T05:01:48;8.80;78.80
6536;DHT22;34330;52.08032700;5.40923460;2023-03-16T05:04:16;8.40;78.50
6536;DHT22;34330;52.08032700;5.40923460;2023-03-16T05:06:45;8.40;78.40
6536;DHT22;34330;52.08032700;5.40923460;2023-03-16T05:09:13;8.40;78.50
6536;DHT22;34330;52.08032700;5.40923460;2023-03-16T05:11:41;8.40;78.60
6536;DHT22;34330;52.08032700;5.40923460;2023-03-16T05:14:09;9.00;79.20
6536;DHT22;34330;52.08032700;5.40923460;2023-03-16T05:16:37;8.40;78.60
6536;DHT22;34330;52.08032700;5.40923460;2023-03-16T05:19:06;8.40;78.60
6536;DHT22;34330;52.08032700;5.40923460;2023-03-16T05:21:34;8.40;78.70
6536;DHT22;34330;52.08032700;5.40923460;2023-03-16T05:24:04;8.40;78.70
6536;DHT22;34330;52.08032700;5.40923460;2023-03-16T05:26:32;8.40;79.00
6536;DHT22;34330;52.08032700;5.40923460;2023-03-16T05:29:00;8.40;79.00
6536;DHT22;34330;52.08032700;5.40923460;2023-03-16T05:31:28;8.40;79.00
6536;DHT22;34330;52.08032700;5.40923460;2023-03-16T05:33:58;8.40;78.90
6536;DHT22;34330;52.08032700;5.40923460;2023-03-16T05:36:30;8.40;79.10
6536;DHT22;34330;52.08032700;5.40923460;2023-03-16T05:38:58;8.40;79.10
6536;DHT22;34330;52.08032700;5.40923460;2023-03-16T05:41:26;8.40;79.10
6536;DHT22;34330;52.08032700;5.40923460;2023-03-16T05:43:54;8.50;79.20
6536;DHT22;34330;52.08032700;5.40923460;2023-03-16T05:46:22;8.50;79.20
6536;DHT22;34330;52.08032700;5.40923460;2023-03-16T05:48:50;8.40;79.20
6536;DHT22;34330;52.08032700;5.40923460;2023-03-16T05:51:17;8.50;79.60
6536;DHT22;34330;52.08032700;5.40923460;2023-03-16T05:53:47;8.50;79.70
6536;DHT22;34330;52.08032700;5.40923460;2023-03-16T05:56:15;8.50;79.80
6536;DHT22;34330;52.08032700;5.40923460;2023-03-16T05:58:43;8.50;79.80
6536;DHT22;34330;52.08032700;5.40923460;2023-03-16T06:01:11;8.60;79.90
6536;DHT22;34330;52.08032700;5.40923460;2023-03-16T06:03:39;8.50;79.90
6536;DHT22;34330;52.08032700;5.40923460;2023-03-16T06:06:08;8.50;80.00
6536;DHT22;34330;52.08032700;5.40923460;2023-03-16T06:08:37;8.50;80.10
6536;DHT22;34330;52.08032700;5.40923460;2023-03-16T06:11:06;8.50;80.10
6536;DHT22;34330;52.08032700;5.40923460;2023-03-16T06:13:34;8.50;80.30
6536;DHT22;34330;52.08032700;5.40923460;2023-03-16T06:16:02;8.50;80.30
6536;DHT22;34330;52.08032700;5.40923460;2023-03-16T06:18:32;8.60;80.50
6536;DHT22;34330;52.08032700;5.40923460;2023-03-16T06:21:00;8.50;80.50
6536;DHT22;34330;52.08032700;5.40923460;2023-03-16T06:23:27;8.50;80.30
6536;DHT22;34330;52.08032700;5.40923460;2023-03-16T06:25:56;8.50;80.30
6536;DHT22;34330;52.08032700;5.40923460;2023-03-16T06:28:26;8.50;80.30
6536;DHT22;34330;52.08032700;5.40923460;2023-03-16T06:30:55;8.50;80.40
6536;DHT22;34330;52.08032700;5.40923460;2023-03-16T06:33:23;8.50;80.30
6536;DHT22;34330;52.08032700;5.40923460;2023-03-16T06:35:54;8.50;80.40
6536;DHT22;34330;52.08032700;5.40923460;2023-03-16T06:38:22;8.60;80.30
6536;DHT22;34330;52.08032700;5.40923460;2023-03-16T06:40:51;8.60;80.40
6536;DHT22;34330;52.08032700;5.40923460;2023-03-16T06:43:19;8.80;81.10
6536;DHT22;34330;52.08032700;5.40923460;2023-03-16T06:45:49;8.60;80.90
6536;DHT22;34330;52.08032700;5.40923460;2023-03-16T06:48:16;8.60;80.90
6536;DHT22;34330;52.08032700;5.40923460;2023-03-16T06:50:45;8.60;81.00
6536;DHT22;34330;52.08032700;5.40923460;2023-03-16T06:53:12;8.60;80.90
6536;DHT22;34330;52.08032700;5.40923460;2023-03-16T06:55:40;8.70;81.10
6536;DHT22;34330;52.08032700;5.40923460;2023-03-16T06:58:11;8.70;81.30
6536;DHT22;34330;52.08032700;5.40923460;2023-03-16T07:00:39;8.70;80.90
6536;DHT22;34330;52.08032700;5.40923460;2023-03-16T07:03:09;8.70;81.10
6536;DHT22;34330;52.08032700;5.40923460;2023-03-16T07:05:37;8.70;81.30
6536;DHT22;34330;52.08032700;5.40923460;2023-03-16T07:08:05;8.70;81.30
6536;DHT22;34330;52.08032700;5.40923460;2023-03-16T07:10:33;8.70;81.10
6536;DHT22;34330;52.08032700;5.40923460;2023-03-16T07:13:01;8.80;81.10
6536;DHT22;34330;52.08032700;5.40923460;2023-03-16T07:15:30;8.80;81.30
6536;DHT22;34330;52.08032700;5.40923460;2023-03-16T07:17:58;8.80;80.90
6536;DHT22;34330;52.08032700;5.40923460;2023-03-16T07:20:28;8.80;81.00
6536;DHT22;34330;52.08032700;5.40923460;2023-03-16T07:22:58;8.80;81.00
6536;DHT22;34330;52.08032700;5.40923460;2023-03-16T07:25:26;8.80;80.90
6536;DHT22;34330;52.08032700;5.40923460;2023-03-16T07:27:54;8.90;81.00
6536;DHT22;34330;52.08032700;5.40923460;2023-03-16T07:30:22;8.80;81.30
6536;DHT22;34330;52.08032700;5.40923460;2023-03-16T07:32:51;8.90;81.50
6536;DHT22;34330;52.08032700;5.40923460;2023-03-16T07:35:19;8.90;81.20
6536;DHT22;34330;52.08032700;5.40923460;2023-03-16T07:37:48;8.90;81.60
6536;DHT22;34330;52.08032700;5.40923460;2023-03-16T07:40:17;8.90;81.70
6536;DHT22;34330;52.08032700;5.40923460;2023-03-16T07:42:45;8.90;81.80
6536;DHT22;34330;52.08032700;5.40923460;2023-03-16T07:45:13;9.20;82.00
6536;DHT22;34330;52.08032700;5.40923460;2023-03-16T07:47:46;9.00;81.80
6536;DHT22;34330;52.08032700;5.40923460;2023-03-16T07:50:14;8.90;81.80
6536;DHT22;34330;52.08032700;5.40923460;2023-03-16T07:52:45;8.90;81.90
6536;DHT22;34330;52.08032700;5.40923460;2023-03-16T07:55:14;8.90;82.10
6536;DHT22;34330;52.08032700;5.40923460;2023-03-16T07:57:43;8.90;82.10
6536;DHT22;34330;52.08032700;5.40923460;2023-03-16T08:00:14;9.10;82.30
6536;DHT22;34330;52.08032700;5.40923460;2023-03-16T08:02:42;8.90;82.20
6536;DHT22;34330;52.08032700;5.40923460;2023-03-16T08:05:10;8.90;82.30
6536;DHT22;34330;52.08032700;5.40923460;2023-03-16T08:07:41;8.90;82.00
6536;DHT22;34330;52.08032700;5.40923460;2023-03-16T08:10:10;8.90;82.20
6536;DHT22;34330;52.08032700;5.40923460;2023-03-16T08:12:39;8.90;82.20
6536;DHT22;34330;52.08032700;5.40923460;2023-03-16T08:15:08;9.00;82.60
6536;DHT22;34330;52.08032700;5.40923460;2023-03-16T08:17:37;9.00;82.80
6536;DHT22;34330;52.08032700;5.40923460;2023-03-16T08:20:08;9.00;82.70
6536;DHT22;34330;52.08032700;5.40923460;2023-03-16T08:22:39;9.00;83.20
6536;DHT22;34330;52.08032700;5.40923460;2023-03-16T08:25:08;9.10;83.30
6536;DHT22;34330;52.08032700;5.40923460;2023-03-16T08:27:38;9.10;83.30
6536;DHT22;34330;52.08032700;5.40923460;2023-03-16T08:30:11;9.20;83.70
6536;DHT22;34330;52.08032700;5.40923460;2023-03-16T08:32:40;9.20;83.30
6536;DHT22;34330;52.08032700;5.40923460;2023-03-16T08:35:11;10.10;82.70
6536;DHT22;34330;52.08032700;5.40923460;2023-03-16T08:37:40;9.70;83.30
6536;DHT22;34330;52.08032700;5.40923460;2023-03-16T08:40:10;9.40;82.80
6536;DHT22;34330;52.08032700;5.40923460;2023-03-16T08:42:43;9.40;82.70
6536;DHT22;34330;52.08032700;5.40923460;2023-03-16T08:45:11;9.40;82.30
6536;DHT22;34330;52.08032700;5.40923460;2023-03-16T08:47:40;9.40;82.10
6536;DHT22;34330;52.08032700;5.40923460;2023-03-16T08:50:11;9.50;81.90
6536;DHT22;34330;52.08032700;5.40923460;2023-03-16T08:52:41;9.50;81.90
6536;DHT22;34330;52.08032700;5.40923460;2023-03-16T08:55:10;9.60;82.50
6536;DHT22;34330;52.08032700;5.40923460;2023-03-16T08:57:39;9.60;81.60
6536;DHT22;34330;52.08032700;5.40923460;2023-03-16T09:00:11;9.70;81.60
6536;DHT22;34330;52.08032700;5.40923460;2023-03-16T09:02:41;9.70;81.60
6536;DHT22;34330;52.08032700;5.40923460;2023-03-16T09:05:11;9.70;81.60
6536;DHT22;34330;52.08032700;5.40923460;2023-03-16T09:07:40;9.70;81.50
6536;DHT22;34330;52.08032700;5.40923460;2023-03-16T09:10:10;9.80;81.40
6536;DHT22;34330;52.08032700;5.40923460;2023-03-16T09:12:42;9.80;82.10
6536;DHT22;34330;52.08032700;5.40923460;2023-03-16T09:15:12;9.80;80.90
6536;DHT22;34330;52.08032700;5.40923460;2023-03-16T09:17:40;9.80;81.10
6536;DHT22;34330;52.08032700;5.40923460;2023-03-16T09:20:12;9.90;80.90
6536;DHT22;34330;52.08032700;5.40923460;2023-03-16T09:22:51;9.90;80.80
6536;DHT22;34330;52.08032700;5.40923460;2023-03-16T09:25:20;10.00;79.40
6536;DHT22;34330;52.08032700;5.40923460;2023-03-16T09:27:50;9.90;80.40
6536;DHT22;34330;52.08032700;5.40923460;2023-03-16T09:30:21;12.50;81.90
6536;DHT22;34330;52.08032700;5.40923460;2023-03-16T09:32:48;10.00;79.40
6536;DHT22;34330;52.08032700;5.40923460;2023-03-16T09:35:17;10.00;79.10
6536;DHT22;34330;52.08032700;5.40923460;2023-03-16T09:37:45;10.00;79.20
6536;DHT22;34330;52.08032700;5.40923460;2023-03-16T09:40:31;10.10;79.20
6536;DHT22;34330;52.08032700;5.40923460;2023-03-16T09:43:26;10.00;79.20
6536;DHT22;34330;52.08032700;5.40923460;2023-03-16T09:46:02;10.10;79.50
6536;DHT22;34330;52.08032700;5.40923460;2023-03-16T09:48:35;10.10;79.50
6536;DHT22;34330;52.08032700;5.40923460;2023-03-16T09:51:06;10.10;79.50
6536;DHT22;34330;52.08032700;5.40923460;2023-03-16T09:53:37;10.10;79.60
6536;DHT22;34330;52.08032700;5.40923460;2023-03-16T09:56:09;10.20;79.80
6536;DHT22;34330;52.08032700;5.40923460;2023-03-16T09:58:37;10.30;79.80
6536;DHT22;34330;52.08032700;5.40923460;2023-03-16T10:01:10;10.30;79.40
6536;DHT22;34330;52.08032700;5.40923460;2023-03-16T10:03:57;10.30;79.50
6536;DHT22;34330;52.08032700;5.40923460;2023-03-16T10:06:28;10.40;79.90
6536;DHT22;34330;52.08032700;5.40923460;2023-03-16T10:09:04;10.50;79.60
6536;DHT22;34330;52.08032700;5.40923460;2023-03-16T10:11:37;10.60;79.70
6536;DHT22;34330;52.08032700;5.40923460;2023-03-16T10:14:11;10.60;79.40
6536;DHT22;34330;52.08032700;5.40923460;2023-03-16T10:16:49;10.70;79.40
6536;DHT22;34330;52.08032700;5.40923460;2023-03-16T10:19:21;10.90;79.20
6536;DHT22;34330;52.08032700;5.40923460;2023-03-16T10:21:55;11.00;79.00
6536;DHT22;34330;52.08032700;5.40923460;2023-03-16T10:24:40;11.10;79.00
6536;DHT22;34330;52.08032700;5.40923460;2023-03-16T10:27:17;11.20;78.80
6536;DHT22;34330;52.08032700;5.40923460;2023-03-16T10:29:47;11.30;78.50
6536;DHT22;34330;52.08032700;5.40923460;2023-03-16T10:32:17;11.40;77.90
6536;DHT22;34330;52.08032700;5.40923460;2023-03-16T10:34:51;11.50;78.00
6536;DHT22;34330;52.08032700;5.40923460;2023-03-16T10:37:19;11.50;77.20
6536;DHT22;34330;52.08032700;5.40923460;2023-03-16T10:39:48;11.60;76.90
6536;DHT22;34330;52.08032700;5.40923460;2023-03-16T10:42:17;11.70;76.90
6536;DHT22;34330;52.08032700;5.40923460;2023-03-16T10:44:46;11.90;76.90
6536;DHT22;34330;52.08032700;5.40923460;2023-03-16T10:47:21;11.90;75.80
6536;DHT22;34330;52.08032700;5.40923460;2023-03-16T10:49:50;12.00;75.30
6536;DHT22;34330;52.08032700;5.40923460;2023-03-16T10:52:21;12.10;75.60
6536;DHT22;34330;52.08032700;5.40923460;2023-03-16T10:54:53;12.20;75.10
6536;DHT22;34330;52.08032700;5.40923460;2023-03-16T10:57:26;12.30;74.20
6536;DHT22;34330;52.08032700;5.40923460;2023-03-16T10:59:55;12.40;74.30
6536;DHT22;34330;52.08032700;5.40923460;2023-03-16T11:02:33;12.70;74.90
6536;DHT22;34330;52.08032700;5.40923460;2023-03-16T11:05:11;12.50;73.80
6536;DHT22;34330;52.08032700;5.40923460;2023-03-16T11:07:47;12.60;73.00
6536;DHT22;34330;52.08032700;5.40923460;2023-03-16T11:10:25;12.70;72.70
6536;DHT22;34330;52.08032700;5.40923460;2023-03-16T11:12:59;12.80;72.00
6536;DHT22;34330;52.08032700;5.40923460;2023-03-16T11:15:36;12.90;72.20
6536;DHT22;34330;52.08032700;5.40923460;2023-03-16T11:18:09;12.90;71.90
6536;DHT22;34330;52.08032700;5.40923460;2023-03-16T11:20:43;13.00;71.90
6536;DHT22;34330;52.08032700;5.40923460;2023-03-16T11:23:14;13.00;72.20
6536;DHT22;34330;52.08032700;5.40923460;2023-03-16T11:25:46;13.00;71.40
6536;DHT22;34330;52.08032700;5.40923460;2023-03-16T11:28:19;13.10;71.10
6536;DHT22;34330;52.08032700;5.40923460;2023-03-16T11:30:55;13.10;71.00
6536;DHT22;34330;52.08032700;5.40923460;2023-03-16T11:33:33;13.10;70.80
6536;DHT22;34330;52.08032700;5.40923460;2023-03-16T11:36:13;13.10;70.70
6536;DHT22;34330;52.08032700;5.40923460;2023-03-16T14:18:45;17.40;57.40
6536;DHT22;34330;52.08032700;5.40923460;2023-03-16T14:21:16;16.40;57.20
6536;DHT22;34330;52.08032700;5.40923460;2023-03-16T14:23:46;17.60;58.40
6536;DHT22;34330;52.08032700;5.40923460;2023-03-16T14:26:16;17.70;57.50
6536;DHT22;34330;52.08032700;5.40923460;2023-03-16T14:28:53;17.80;56.90
6536;DHT22;34330;52.08032700;5.40923460;2023-03-16T14:31:32;17.90;56.40
6536;DHT22;34330;52.08032700;5.40923460;2023-03-16T14:34:03;16.10;55.20
6536;DHT22;34330;52.08032700;5.40923460;2023-03-16T14:36:35;18.30;56.80
6536;DHT22;34330;52.08032700;5.40923460;2023-03-16T14:39:11;18.40;56.70
6536;DHT22;34330;52.08032700;5.40923460;2023-03-16T14:41:40;18.60;55.60
6536;DHT22;34330;52.08032700;5.40923460;2023-03-16T14:44:20;18.90;55.80
6536;DHT22;34330;52.08032700;5.40923460;2023-03-16T14:46:48;18.80;54.50
6536;DHT22;34330;52.08032700;5.40923460;2023-03-16T14:49:21;18.90;54.50
6536;DHT22;34330;52.08032700;5.40923460;2023-03-16T14:51:51;19.00;53.70
6536;DHT22;34330;52.08032700;5.40923460;2023-03-16T14:54:21;19.10;53.30
6536;DHT22;34330;52.08032700;5.40923460;2023-03-16T14:56:51;19.20;53.30
6536;DHT22;34330;52.08032700;5.40923460;2023-03-16T14:59:20;19.50;53.70
6536;DHT22;34330;52.08032700;5.40923460;2023-03-16T15:01:49;19.50;53.60
6536;DHT22;34330;52.08032700;5.40923460;2023-03-16T15:04:24;19.60;52.90
6536;DHT22;34330;52.08032700;5.40923460;2023-03-16T15:06:53;19.70;52.90
6536;DHT22;34330;52.08032700;5.40923460;2023-03-16T15:09:32;19.80;52.60
6536;DHT22;34330;52.08032700;5.40923460;2023-03-16T15:12:00;19.90;51.50
6536;DHT22;34330;52.08032700;5.40923460;2023-03-16T15:14:29;19.90;51.50
6536;DHT22;34330;52.08032700;5.40923460;2023-03-16T15:17:14;19.90;51.80
6536;DHT22;34330;52.08032700;5.40923460;2023-03-16T15:19:44;19.80;50.60
6536;DHT22;34330;52.08032700;5.40923460;2023-03-16T15:22:12;19.70;50.30
6536;DHT22;34330;52.08032700;5.40923460;2023-03-16T15:24:41;19.70;51.00
6536;DHT22;34330;52.08032700;5.40923460;2023-03-16T15:27:17;19.60;50.90
6536;DHT22;34330;52.08032700;5.40923460;2023-03-16T15:29:46;19.60;50.60
6536;DHT22;34330;52.08032700;5.40923460;2023-03-16T15:32:14;19.70;52.10
6536;DHT22;34330;52.08032700;5.40923460;2023-03-16T15:34:44;19.80;51.90
6536;DHT22;34330;52.08032700;5.40923460;2023-03-16T15:37:16;19.90;51.00
6536;DHT22;34330;52.08032700;5.40923460;2023-03-16T15:39:46;20.10;51.30
6536;DHT22;34330;52.08032700;5.40923460;2023-03-16T15:42:15;20.40;51.60
6536;DHT22;34330;52.08032700;5.40923460;2023-03-16T15:44:44;20.60;51.20
6536;DHT22;34330;52.08032700;5.40923460;2023-03-16T15:47:13;20.80;50.40
6536;DHT22;34330;52.08032700;5.40923460;2023-03-16T15:49:41;21.00;49.50
6536;DHT22;34330;52.08032700;5.40923460;2023-03-16T15:52:24;21.20;49.30
6536;DHT22;34330;52.08032700;5.40923460;2023-03-16T15:54:55;21.30;48.00
6536;DHT22;34330;52.08032700;5.40923460;2023-03-16T15:57:27;21.30;48.70
6536;DHT22;34330;52.08032700;5.40923460;2023-03-16T15:59:56;21.40;48.80
6536;DHT22;34330;52.08032700;5.40923460;2023-03-16T16:02:27;21.40;48.60
6536;DHT22;34330;52.08032700;5.40923460;2023-03-16T16:04:57;21.50;47.70
6536;DHT22;34330;52.08032700;5.40923460;2023-03-16T16:07:26;21.30;47.60
6536;DHT22;34330;52.08032700;5.40923460;2023-03-16T16:09:54;21.40;47.70
6536;DHT22;34330;52.08032700;5.40923460;2023-03-16T16:12:22;21.10;47.80
6536;DHT22;34330;52.08032700;5.40923460;2023-03-16T16:14:53;20.90;47.30
6536;DHT22;34330;52.08032700;5.40923460;2023-03-16T16:17:22;20.80;47.40
6536;DHT22;34330;52.08032700;5.40923460;2023-03-16T16:20:17;20.70;47.90
6536;DHT22;34330;52.08032700;5.40923460;2023-03-16T16:22:50;20.60;47.40
6536;DHT22;34330;52.08032700;5.40923460;2023-03-16T16:25:20;20.50;47.60
6536;DHT22;34330;52.08032700;5.40923460;2023-03-16T16:27:49;20.40;47.80
6536;DHT22;34330;52.08032700;5.40923460;2023-03-16T16:30:23;20.30;48.20
6536;DHT22;34330;52.08032700;5.40923460;2023-03-16T16:32:52;20.20;47.90
6536;DHT22;34330;52.08032700;5.40923460;2023-03-16T16:35:25;20.10;48.10
6536;DHT22;34330;52.08032700;5.40923460;2023-03-16T16:37:56;20.00;48.20
6536;DHT22;34330;52.08032700;5.40923460;2023-03-16T16:40:32;19.90;47.80